KTTN/TTN METAR and TAF weather

Enter ICAO airport designator
Station Type Date Time Source
KTTN METAR 2022/05/23 13:53 UTC NOAA

KTTN 231353Z 35008KT 10SM CLR 18/10 A3021 RMK AO2 SLP225 T01830100


Station Type Date Time Source
KTTN Decoded METAR 2022/05/23 13:53 UTC NOAA

TRENTON MERCER COUNTY AIRPORT , NJ, United States (KTTN) 40-17N 074-49W 59M
May 23, 2022 - 09:53 AM EDT / 2022.05.23 1353 UTC
Wind: from the N (350 degrees) at 9 MPH (8 KT):0
Visibility: 10 mile(s):0
Sky conditions: clear
Temperature: 64.9 F (18.3 C)
Dew Point: 50.0 F (10.0 C)
Relative Humidity: 58%
Pressure (altimeter): 30.21 in. Hg (1023 hPa)
ob: KTTN 231353Z 35008KT 10SM CLR 18/10 A3021 RMK AO2 SLP225 T01830100
cycle: 14

Station Type Date Time Source
KTTN TAF 2022/05/23 12:22 UTC NOAA

TAF KTTN 231120Z 2312/2412 36012KT P6SM BKN250
FM232000 02005KT P6SM BKN250
FM240000 VRB03KT P6SM BKN100
FM241000 06005KT P6SM OVC060

Example: see airport list